Accueil
METAR-TAF:

METAR-TAF

Aéroports :

Aéroport de Milan-Linate

Milan, Italie

latitude: 45-26N, longitude: 009-17E, altitude: 107 m

Observation

Le bulletin a été fait il y a 21 minutes, à 06:50 UTC
Vent 5 kt de est, variant entre est/nord-est et sud-est
Température 11°C
Humidité 71%
Pression 1027 hPa
Visibilité 10 km ou plus
Nuages fragmentés à une hauteur de 5000 ft

METAR: LIML 160650Z 10005KT 060V130 9999 BKN050 11/06 Q1027 NOSIG

Heure: 08:11 (07:11 UTC)

Prévision

Le bulletin a été fait il y a 2 heures et 11 minutes, à 05:00 UTC
Prévision valable du 16 à 06 UTC au 17 à 06 UTC
Vent 5 kt de direction variable
Visibilité: 4000 m
Nuages fragmentés à une hauteur de 1500 ft
brume
Temporairement
du 16 à 06 UTC au 16 à 08 UTC
Visibilité: 2000 m
Evoluant progressivement
du 16 à 09 UTC au 16 à 11 UTC
Visibilité: 7000 m

TAF: LIML 160500Z 1606/1706 VRB05KT 4000 BR BKN015 TEMPO 1606/1608 2000 BECMG 1609/1611 7000

Observations et prévisions météorologiques de plus de 4000 aéroports (messages METAR et TAF).

Les stations disponibles sont représentées par des disques jaunes et rouges sur la carte.

Passer la souris dessus pour voir le nom de la station.

Cliquer dessus pour voir les observations et prévisions météorologiques.

Pour changer de carte: cliquez sur les boutons verts avec une croix noire pour zoomer, sur le bouton vert avec un tiret pour effectuer un zoom arrière, ou sur les flèches vertes pour les cartes adjacentes.


METAR-TAF: